Time;durP1;ratioP1;P1;durP2;ratioP2;P2;SDS_P1;SDS_P2;PMS_P1;PMS_P2;Temp;Humidity;BMP_temperature;BMP_pressure;BME280_temperature;BME280_humidity;BME280_pressure;Samples;Min_cycle;Max_cycle;Signal;HPM_P1;HPM_P2
2022/11/12 00:02:34;;;;;;;15.28;13.53;;;;;;;15.33;60.28;103152.45;1615676;88;21054;-53
2022/11/12 00:05:20;;;;;;;16.65;13.58;;;;;;;15.31;60.31;103162.08;1615596;88;21054;-53
2022/11/12 00:08:05;;;;;;;16.27;14.00;;;;;;;15.27;60.39;103166.91;1615571;88;21085;-53
2022/11/12 00:10:50;;;;;;;17.00;14.28;;;;;;;15.24;60.48;103168.21;1615427;88;21041;-53
2022/11/12 00:13:36;;;;;;;18.50;14.07;;;;;;;15.21;60.54;103166.46;1614934;88;21100;-52
2022/11/12 00:16:22;;;;;;;15.93;13.95;;;;;;;15.24;60.37;103168.21;1611277;88;21045;-53
2022/11/12 00:19:07;;;;;;;14.87;13.00;;;;;;;15.24;60.25;103168.21;1614474;88;21065;-52
2022/11/12 00:21:52;;;;;;;16.73;13.90;;;;;;;15.24;60.17;103170.41;1629506;86;21522;-53
2022/11/12 00:24:39;;;;;;;17.32;14.75;;;;;;;15.26;60.08;103174.33;1628683;86;21086;-54
2022/11/12 00:27:24;;;;;;;15.03;13.43;;;;;;;15.28;59.86;103164.70;1634177;87;21102;-53
2022/11/12 00:30:10;;;;;;;15.10;13.30;;;;;;;15.28;59.76;103165.58;1628521;87;21081;-53
2022/11/12 00:32:55;;;;;;;16.40;14.13;;;;;;;15.27;59.80;103164.28;1621027;87;21112;-53
2022/11/12 00:35:40;;;;;;;14.83;13.18;;;;;;;15.26;59.73;103166.45;1633900;87;21494;-52
2022/11/12 00:38:25;;;;;;;18.07;14.43;;;;;;;15.25;59.66;103164.73;1615063;88;21062;-53
2022/11/12 00:41:10;;;;;;;14.53;13.03;;;;;;;15.25;59.49;103162.11;1614547;87;21069;-53
2022/11/12 00:43:56;;;;;;;17.77;15.05;;;;;;;15.22;59.53;103150.30;1613650;88;21050;-53
2022/11/12 00:46:42;;;;;;;15.03;13.43;;;;;;;15.18;59.63;103151.19;1615827;88;21069;-53
2022/11/12 00:49:27;;;;;;;16.20;14.23;;;;;;;15.14;59.82;103153.38;1615597;88;21579;-53
2022/11/12 00:52:12;;;;;;;17.57;15.03;;;;;;;15.09;59.84;103153.38;1611193;88;21077;-53
2022/11/12 00:54:58;;;;;;;17.57;14.83;;;;;;;15.01;60.02;103151.22;1606242;87;21092;-53
2022/11/12 00:57:43;;;;;;;18.10;15.30;;;;;;;15.04;59.94;103154.28;1624399;87;21065;-53
2022/11/12 01:00:28;;;;;;;20.55;14.30;;;;;;;15.03;59.85;103152.52;1632782;87;21070;-54
2022/11/12 01:03:13;;;;;;;15.93;14.15;;;;;;;15.05;59.88;103156.02;1626187;87;21071;-53
2022/11/12 01:06:02;;;;;;;18.42;15.70;;;;;;;15.04;59.98;103152.55;1626071;87;21485;-54
2022/11/12 01:08:48;;;;;;;16.77;14.45;;;;;;;15.04;60.10;103160.84;1601290;89;21050;-53
2022/11/12 01:11:33;;;;;;;16.67;14.98;;;;;;;15.04;60.39;103159.53;1623447;88;21111;-53
2022/11/12 01:14:18;;;;;;;17.20;15.30;;;;;;;15.03;60.46;103159.08;1624864;88;21062;-54
2022/11/12 01:17:04;;;;;;;17.98;15.35;;;;;;;15.02;60.53;103163.91;1627620;88;21062;-53
2022/11/12 01:19:49;;;;;;;21.23;15.88;;;;;;;15.00;60.64;103164.34;1628106;88;21173;-53
2022/11/12 01:22:35;;;;;;;17.50;15.55;;;;;;;14.97;60.81;103168.27;1627519;88;21050;-53
2022/11/12 01:25:21;;;;;;;17.80;14.53;;;;;;;14.97;60.87;103166.53;1624960;88;21086;-53
2022/11/12 01:28:05;;;;;;;16.73;14.95;;;;;;;14.99;60.88;103170.45;1627609;88;21106;-53
2022/11/12 01:30:51;;;;;;;16.52;14.50;;;;;;;14.98;60.94;103172.66;1627700;88;21099;-53
2022/11/12 01:33:36;;;;;;;17.92;15.45;;;;;;;14.97;61.07;103169.15;1627777;88;21062;-53
2022/11/12 01:36:21;;;;;;;19.00;14.55;;;;;;;14.99;61.03;103170.02;1627890;88;21577;-53
2022/11/12 01:39:08;;;;;;;17.98;15.15;;;;;;;14.97;61.03;103169.58;1627709;88;21186;-53
2022/11/12 01:41:52;;;;;;;21.12;15.25;;;;;;;14.95;61.08;103171.33;1625056;87;21074;-54
2022/11/12 01:44:41;;;;;;;16.85;15.05;;;;;;;14.90;61.28;103171.33;1625596;88;21134;-53
2022/11/12 01:47:29;;;;;;;18.60;16.10;;;;;;;14.91;61.31;103176.14;1628176;87;21062;-53
2022/11/12 01:50:26;;;;;;;17.35;15.10;;;;;;;14.89;61.42;103179.20;1623525;88;21074;-52
2022/11/12 01:53:11;;;;;;;17.87;15.98;;;;;;;14.90;61.25;103182.28;1624997;88;21113;-53
2022/11/12 01:55:56;;;;;;;18.37;15.50;;;;;;;14.87;61.27;103186.20;1627555;88;21617;-53
2022/11/12 01:58:41;;;;;;;20.35;16.65;;;;;;;14.84;61.33;103182.28;1617765;88;21070;-53
2022/11/12 02:01:27;;;;;;;17.60;15.20;;;;;;;14.84;61.36;103179.66;1618772;87;21050;-52
2022/11/12 02:04:12;;;;;;;20.00;16.57;;;;;;;14.86;61.34;103184.47;1618563;88;21050;-53
2022/11/12 02:06:57;;;;;;;18.95;16.07;;;;;;;14.87;61.31;103188.39;1620347;87;21113;-52
2022/11/12 02:09:43;;;;;;;18.48;16.48;;;;;;;14.89;61.27;103188.38;1609500;88;21568;-53
2022/11/12 02:15:33;;;;;;;18.00;15.80;;;;;;;14.95;61.15;103196.23;1613588;87;21564;-51
2022/11/12 02:18:17;;;;;;;16.67;14.87;;;;;;;14.96;60.96;103196.22;1617075;88;21041;-52
2022/11/12 02:21:06;;;;;;;18.42;15.88;;;;;;;14.96;61.00;103197.53;1610008;88;21613;-52
2022/11/12 02:24:07;;;;;;;19.00;16.07;;;;;;;14.98;61.01;103195.78;1610777;88;21085;-52
2022/11/12 02:26:54;;;;;;;20.32;16.55;;;;;;;15.01;60.91;103194.91;1664051;85;21075;-52
2022/11/12 02:29:45;;;;;;;17.52;15.40;;;;;;;15.02;60.73;103199.30;1647937;85;21068;-52
2022/11/12 02:32:26;;;;;;;18.42;15.83;;;;;;;14.99;60.69;103198.86;1650283;85;21068;-52
2022/11/12 02:35:11;;;;;;;17.35;14.98;;;;;;;14.95;60.81;103199.73;1665985;85;21047;-53
2022/11/12 02:37:56;;;;;;;18.67;16.27;;;;;;;14.91;60.96;103197.11;1656110;85;21068;-53
2022/11/12 02:40:42;;;;;;;17.73;15.83;;;;;;;14.89;61.00;103201.05;1658264;85;21135;-52
2022/11/12 02:43:27;;;;;;;16.30;14.60;;;;;;;14.88;61.08;103205.00;1660712;85;21374;-54
2022/11/12 02:46:12;;;;;;;17.62;15.03;;;;;;;14.90;61.13;103199.32;1658236;85;21550;-52
2022/11/12 02:48:58;;;;;;;17.45;15.50;;;;;;;14.92;61.09;103198.88;1657709;85;21130;-52
2022/11/12 02:51:43;;;;;;;17.70;15.35;;;;;;;14.91;61.02;103197.11;1652240;85;21507;-53
2022/11/12 02:54:28;;;;;;;17.77;15.60;;;;;;;14.91;61.05;103201.05;1651722;85;21075;-52
2022/11/12 02:57:13;;;;;;;17.85;15.75;;;;;;;14.91;60.93;103204.98;1659319;85;21056;-52
2022/11/12 02:59:58;;;;;;;18.32;15.83;;;;;;;14.91;60.98;103195.38;1662129;85;21052;-53
2022/11/12 03:02:57;;;;;;;16.50;14.73;;;;;;;14.93;60.88;103205.42;1660190;85;21048;-52
2022/11/12 03:05:33;;;;;;;17.65;14.40;;;;;;;14.91;60.73;103204.98;1652082;85;22701;-53
2022/11/12 03:08:17;;;;;;;16.70;14.45;;;;;;;14.89;60.85;103204.11;1659374;85;21060;-52
2022/11/12 03:11:11;;;;;;;15.63;13.88;;;;;;;14.91;60.78;103207.59;1652538;85;21088;-54
2022/11/12 03:13:58;;;;;;;16.42;14.33;;;;;;;14.92;60.72;103205.43;1666284;85;21052;-52
2022/11/12 03:16:44;;;;;;;16.90;14.35;;;;;;;14.93;60.63;103211.09;1657112;85;21087;-52
2022/11/12 03:19:29;;;;;;;15.28;13.75;;;;;;;14.94;60.53;103204.99;1652796;86;21081;-52
2022/11/12 03:22:16;;;;;;;16.70;13.83;;;;;;;14.94;60.55;103212.86;1664512;85;21123;-52
2022/11/12 03:25:01;;;;;;;17.77;14.05;;;;;;;14.94;60.32;103207.61;1664261;85;21084;-52
2022/11/12 03:27:47;;;;;;;15.53;12.93;;;;;;;14.92;60.43;103208.05;1653803;85;21027;-52
2022/11/12 03:30:36;;;;;;;14.33;12.82;;;;;;;14.91;60.34;103206.29;1660331;85;21048;-52
2022/11/12 03:33:22;;;;;;;15.05;13.22;;;;;;;14.87;60.39;103211.09;1656705;85;21040;-52
2022/11/12 03:36:07;;;;;;;14.40;12.90;;;;;;;14.84;60.30;103211.12;1658365;85;21048;-52
2022/11/12 03:38:52;;;;;;;13.83;11.73;;;;;;;14.83;60.44;103205.42;1659668;85;21024;-52
2022/11/12 03:41:38;;;;;;;13.65;12.13;;;;;;;14.84;60.39;103211.12;1650825;85;21076;-52
2022/11/12 03:44:23;;;;;;;12.98;11.68;;;;;;;14.85;60.31;103220.72;1658414;85;21032;-53
2022/11/12 03:47:08;;;;;;;14.23;12.80;;;;;;;14.82;60.37;103210.25;1655759;85;21048;-54
2022/11/12 03:49:53;;;;;;;14.80;11.97;;;;;;;14.81;60.27;103209.80;1671422;85;21048;-52
2022/11/12 03:52:38;;;;;;;12.47;11.18;;;;;;;14.80;60.30;103214.58;1668959;85;21516;-53
2022/11/12 03:55:26;;;;;;;13.18;11.83;;;;;;;14.80;60.22;103214.58;1642720;86;21178;-51
2022/11/12 03:58:11;;;;;;;13.08;11.78;;;;;;;14.78;60.22;103208.47;1653299;85;21460;-51
2022/11/12 04:00:56;;;;;;;13.62;11.40;;;;;;;14.77;60.26;103213.30;1656791;84;21059;-51
2022/11/12 04:03:41;;;;;;;12.80;11.45;;;;;;;14.78;60.30;103218.95;1663688;85;21064;-51
2022/11/12 04:09:30;;;;;;;12.03;10.82;;;;;;;14.81;59.99;103216.34;1642650;85;21543;-51
2022/11/12 04:15:19;;;;;;;11.93;10.72;;;;;;;14.74;60.04;103223.77;1648378;85;21556;-52
2022/11/12 04:26:21;;;;;;;12.07;10.88;;;;;;;14.75;59.84;103229.03;1659637;85;21099;-51
2022/11/12 04:27:01;;;;;;;12.15;10.85;;;;;;;14.78;59.75;103228.12;1646220;86;21063;-51
2022/11/12 04:32:53;;;;;;;12.28;10.98;;;;;;;14.82;59.53;103236.46;1652471;85;21091;-51
2022/11/12 04:35:39;;;;;;;14.25;11.68;;;;;;;14.82;59.51;103243.86;1659990;85;21491;-51
2022/11/12 04:38:25;;;;;;;13.30;11.10;;;;;;;14.84;59.39;103242.58;1667751;85;21551;-52
2022/11/12 04:47:10;;;;;;;12.63;10.53;;;;;;;14.89;59.21;103249.55;1606291;88;21040;-51
2022/11/12 04:49:55;;;;;;;12.58;11.22;;;;;;;14.90;59.14;103256.53;1565731;90;21584;-51
2022/11/12 04:52:42;;;;;;;12.28;10.90;;;;;;;14.89;59.21;103249.55;1563311;90;21066;-52
2022/11/12 04:55:28;;;;;;;11.53;9.73;;;;;;;14.91;59.19;103252.17;1585077;90;21116;-52
2022/11/12 04:58:12;;;;;;;10.63;9.55;;;;;;;14.93;59.16;103253.04;1604479;87;21554;-51
2022/11/12 05:00:58;;;;;;;11.57;10.38;;;;;;;14.92;59.06;103256.55;1618598;88;21617;-52
2022/11/12 05:03:43;;;;;;;11.73;10.53;;;;;;;14.90;59.13;103253.91;1597815;88;21409;-52
2022/11/12 05:09:32;;;;;;;11.68;10.00;;;;;;;14.97;58.96;103258.72;1607200;87;21028;-52
2022/11/12 05:12:17;;;;;;;10.88;9.75;;;;;;;15.00;58.84;103258.27;1619841;88;21157;-51
2022/11/12 05:15:05;;;;;;;13.68;10.35;;;;;;;15.02;58.67;103260.91;1618963;88;21083;-52
2022/11/12 05:17:51;;;;;;;12.33;9.80;;;;;;;15.00;58.73;103262.66;1616169;88;21051;-51
2022/11/12 05:20:38;;;;;;;11.08;9.88;;;;;;;14.99;58.73;103265.72;1615235;88;21145;-52
2022/11/12 05:23:23;;;;;;;10.15;9.15;;;;;;;14.98;58.76;103257.86;1632346;85;21057;-51
2022/11/12 05:26:08;;;;;;;11.57;9.25;;;;;;;14.97;58.63;103260.03;1668015;85;21037;-51
2022/11/12 05:28:53;;;;;;;10.25;9.05;;;;;;;14.91;58.71;103263.96;1654975;86;21041;-52
2022/11/12 05:31:38;;;;;;;10.98;8.93;;;;;;;14.87;58.81;103268.77;1669224;85;21055;-51
2022/11/12 05:34:23;;;;;;;12.90;9.05;;;;;;;14.84;58.94;103276.66;1654577;85;21087;-52
2022/11/12 05:37:10;;;;;;;11.97;8.45;;;;;;;14.83;59.00;103280.13;1655029;85;21060;-52
2022/11/12 05:39:54;;;;;;;10.32;8.20;;;;;;;14.84;58.90;103277.97;1662682;85;21555;-53
2022/11/12 05:42:39;;;;;;;9.08;8.05;;;;;;;14.79;58.84;103282.31;1654664;85;21555;-53
2022/11/12 05:45:24;;;;;;;10.13;8.88;;;;;;;14.76;58.78;103291.47;1661150;85;21567;-52
2022/11/12 05:48:09;;;;;;;9.60;8.60;;;;;;;14.69;58.87;103291.46;1657653;85;21048;-52
2022/11/12 05:50:55;;;;;;;8.53;7.70;;;;;;;14.62;58.85;103291.03;1641953;85;21057;-52
2022/11/12 05:53:40;;;;;;;9.30;8.40;;;;;;;14.51;58.98;103290.13;1642164;86;21076;-53
2022/11/12 05:56:26;;;;;;;9.58;8.05;;;;;;;14.41;59.17;103297.53;1656577;84;21095;-52
2022/11/12 05:59:12;;;;;;;10.25;8.78;;;;;;;14.34;59.51;103298.37;1650389;85;21055;-51
2022/11/12 06:01:57;;;;;;;10.18;9.18;;;;;;;14.28;59.62;103300.09;1653159;85;22141;-51
2022/11/12 06:04:42;;;;;;;9.75;8.78;;;;;;;14.19;59.61;103299.62;1658206;85;21071;-52
2022/11/12 06:07:28;;;;;;;10.85;9.75;;;;;;;14.07;60.01;103302.19;1652819;85;21602;-52
2022/11/12 06:10:13;;;;;;;10.20;9.23;;;;;;;14.01;60.25;103304.78;1661610;85;21516;-52
2022/11/12 06:12:58;;;;;;;11.57;9.25;;;;;;;13.94;60.60;103306.92;1651112;85;21040;-52
2022/11/12 06:15:45;;;;;;;10.58;9.58;;;;;;;13.92;60.67;103306.04;1663273;85;21103;-52
2022/11/12 06:18:29;;;;;;;8.58;7.83;;;;;;;13.86;60.63;103312.55;1664440;85;21044;-52
2022/11/12 06:21:18;;;;;;;10.88;9.80;;;;;;;13.80;60.71;103314.72;1642843;85;21646;-52
2022/11/12 06:24:05;;;;;;;10.53;8.85;;;;;;;13.74;60.76;103312.06;1641182;85;21563;-52
2022/11/12 06:26:50;;;;;;;9.08;8.23;;;;;;;13.68;60.93;103320.30;1642227;85;21044;-52
2022/11/12 06:29:35;;;;;;;8.80;8.00;;;;;;;13.64;61.11;103323.31;1648818;85;21068;-52
2022/11/12 06:32:20;;;;;;;8.55;7.75;;;;;;;13.62;61.21;103318.97;1654071;85;21064;-52
2022/11/12 06:35:07;;;;;;;8.15;7.35;;;;;;;13.59;61.22;103318.50;1651693;85;21190;-52
2022/11/12 06:37:54;;;;;;;8.40;7.60;;;;;;;13.58;61.26;103323.73;1648599;85;21083;-52
2022/11/12 06:40:40;;;;;;;7.70;7.00;;;;;;;13.56;61.26;103324.16;1654062;85;21099;-52
2022/11/12 06:43:26;;;;;;;8.20;7.40;;;;;;;13.53;61.33;103324.13;1627937;85;21092;-52
2022/11/12 06:46:14;;;;;;;8.50;7.60;;;;;;;13.50;61.45;103329.31;1641342;85;21127;-52
2022/11/12 06:48:59;;;;;;;8.25;7.45;;;;;;;13.50;61.65;103334.55;1662492;85;21031;-52
2022/11/12 06:51:44;;;;;;;8.18;7.37;;;;;;;13.52;61.67;103335.44;1647359;86;21080;-52
2022/11/12 06:54:30;;;;;;;8.90;7.80;;;;;;;13.54;61.73;103337.20;1646211;86;21048;-52
2022/11/12 06:57:15;;;;;;;7.92;7.12;;;;;;;13.59;61.72;103339.86;1657952;85;21052;-53
2022/11/12 07:00:01;;;;;;;8.00;7.20;;;;;;;13.62;61.50;103337.28;1657167;85;21048;-52
2022/11/12 07:02:46;;;;;;;8.45;7.50;;;;;;;13.62;61.43;103337.28;1657700;85;21096;-52
2022/11/12 07:05:36;;;;;;;7.87;7.08;;;;;;;13.60;61.40;103342.48;1664235;85;21111;-52
2022/11/12 07:08:21;;;;;;;8.38;7.58;;;;;;;13.61;61.48;103348.59;1660156;85;21555;-52
2022/11/12 07:11:08;;;;;;;7.22;6.53;;;;;;;13.64;61.35;103346.86;1657194;85;21560;-52
2022/11/12 07:13:53;;;;;;;9.08;7.95;;;;;;;13.66;60.95;103354.74;1650964;85;21139;-52
2022/11/12 07:16:39;;;;;;;7.90;7.10;;;;;;;13.59;60.98;103351.63;1654752;85;21044;-51
2022/11/12 07:19:25;;;;;;;8.58;7.42;;;;;;;13.57;61.11;103352.05;1662070;85;21539;-53
2022/11/12 07:22:10;;;;;;;8.65;7.47;;;;;;;13.55;61.24;103353.78;1656008;85;21091;-52
2022/11/12 07:24:56;;;;;;;9.00;8.05;;;;;;;13.53;61.37;103356.82;1650702;85;21056;-52
2022/11/12 07:27:41;;;;;;;9.08;8.18;;;;;;;13.56;61.56;103360.78;1649152;86;21032;-52
2022/11/12 07:30:26;;;;;;;7.62;6.92;;;;;;;13.63;61.39;103362.55;1650299;85;21024;-51
2022/11/12 07:33:13;;;;;;;9.33;8.33;;;;;;;13.64;61.36;103356.48;1661173;85;21123;-51
2022/11/12 07:36:02;;;;;;;8.63;7.72;;;;;;;13.67;61.39;103360.41;1661708;84;21515;-51
2022/11/12 07:38:50;;;;;;;8.95;8.05;;;;;;;13.67;61.43;103353.86;1655644;84;21086;-51
2022/11/12 07:41:35;;;;;;;9.65;8.65;;;;;;;13.67;61.45;103353.86;1656596;86;21034;-51
2022/11/12 07:44:20;;;;;;;9.68;8.65;;;;;;;13.66;61.74;103356.91;1625445;88;21622;-51
2022/11/12 07:47:05;;;;;;;9.15;8.25;;;;;;;13.71;61.79;103354.33;1606754;88;21102;-51
2022/11/12 07:49:50;;;;;;;9.95;8.95;;;;;;;13.73;61.78;103361.75;1658248;85;21046;-51
2022/11/12 07:52:37;;;;;;;9.80;8.80;;;;;;;13.72;61.63;103354.78;1655775;86;21581;-50
2022/11/12 07:55:22;;;;;;;10.20;9.18;;;;;;;13.75;61.73;103362.63;1605380;89;21025;-51
2022/11/12 07:58:09;;;;;;;10.58;9.58;;;;;;;13.78;61.81;103358.74;1610017;89;21113;-51
2022/11/12 08:00:54;;;;;;;11.78;10.00;;;;;;;13.85;61.83;103363.13;1604366;89;21101;-50
2022/11/12 08:03:39;;;;;;;11.90;10.70;;;;;;;13.89;61.65;103364.90;1604974;89;21090;-50
2022/11/12 08:06:25;;;;;;;14.47;11.25;;;;;;;13.90;61.75;103354.89;1605871;89;21142;-51
2022/11/12 08:09:11;;;;;;;12.80;11.35;;;;;;;13.95;61.84;103358.39;1606711;89;21550;-51
2022/11/12 08:11:56;;;;;;;14.23;11.38;;;;;;;13.98;61.79;103363.66;1609088;89;21529;-50
2022/11/12 08:14:41;;;;;;;12.68;11.38;;;;;;;13.97;61.54;103361.92;1608706;89;21062;-50
2022/11/12 08:17:27;;;;;;;12.90;11.48;;;;;;;13.96;61.48;103374.55;1598423;89;21085;-50
2022/11/12 08:20:12;;;;;;;12.80;11.30;;;;;;;13.94;61.57;103369.73;1599215;89;21554;-51
2022/11/12 08:23:00;;;;;;;11.43;10.25;;;;;;;13.91;61.52;103378.87;1600158;88;21126;-50
2022/11/12 08:25:45;;;;;;;11.30;10.20;;;;;;;13.91;61.61;103370.17;1604826;89;21577;-50
2022/11/12 08:28:32;;;;;;;12.58;10.85;;;;;;;13.90;61.61;103375.83;1599985;89;21094;-50
2022/11/12 08:31:20;;;;;;;11.45;10.25;;;;;;;13.91;61.77;103381.48;1608710;89;21574;-50
2022/11/12 08:34:10;;;;;;;10.28;9.23;;;;;;;13.96;61.59;103378.48;1608786;89;21169;-50
2022/11/12 08:36:52;;;;;;;12.10;10.50;;;;;;;13.98;61.58;103381.98;1617943;88;21088;-51
2022/11/12 08:39:37;;;;;;;10.48;9.40;;;;;;;13.98;61.58;103383.29;1615328;87;21105;-50
2022/11/12 08:42:22;;;;;;;11.68;9.95;;;;;;;13.96;61.67;103381.09;1611967;87;21658;-50
2022/11/12 08:45:09;;;;;;;10.95;9.83;;;;;;;13.98;61.67;103387.22;1612801;88;21094;-51
2022/11/12 08:48:04;;;;;;;11.45;10.30;;;;;;;13.99;61.66;103379.82;1615143;87;21541;-50
2022/11/12 08:50:49;;;;;;;11.48;10.00;;;;;;;14.02;61.98;103382.44;1519567;92;21264;-50
2022/11/12 08:53:34;;;;;;;9.83;8.83;;;;;;;14.11;61.80;103377.27;1540498;92;21139;-51
2022/11/12 08:56:20;;;;;;;9.88;8.85;;;;;;;14.18;61.60;103382.11;1585396;89;21565;-51
2022/11/12 08:59:05;;;;;;;11.25;9.15;;;;;;;14.23;61.53;103382.98;1564123;90;21648;-51
2022/11/12 09:01:50;;;;;;;8.85;7.80;;;;;;;14.25;61.30;103382.13;1556579;90;21085;-50
2022/11/12 09:04:35;;;;;;;11.43;9.28;;;;;;;14.28;61.02;103383.47;1567047;89;21120;-51
2022/11/12 09:07:21;;;;;;;10.80;8.95;;;;;;;14.29;61.08;103392.21;1517745;91;21155;-50
2022/11/12 09:10:07;;;;;;;10.60;8.98;;;;;;;14.29;61.00;103387.86;1576324;89;21089;-50
2022/11/12 09:12:52;;;;;;;13.55;9.98;;;;;;;14.31;61.13;103390.05;1511532;92;21146;-51
2022/11/12 09:15:39;;;;;;;13.75;10.72;;;;;;;14.36;61.33;103388.30;1570220;89;21067;-51
2022/11/12 09:18:24;;;;;;;13.45;10.85;;;;;;;14.40;61.21;103384.86;1566091;90;21059;-50
2022/11/12 09:21:11;;;;;;;13.70;11.20;;;;;;;14.42;61.13;103388.36;1582140;89;21065;-52
2022/11/12 09:23:56;;;;;;;15.72;11.93;;;;;;;14.39;61.14;103377.86;1562085;89;21100;-51
2022/11/12 09:26:42;;;;;;;14.90;11.88;;;;;;;14.35;61.21;103382.64;1564083;90;21073;-50
2022/11/12 09:29:28;;;;;;;13.78;12.03;;;;;;;14.24;61.39;103382.98;1574103;89;21042;-50
2022/11/12 09:32:13;;;;;;;13.90;12.03;;;;;;;14.21;61.85;103382.10;1546973;90;21139;-51
2022/11/12 09:34:58;;;;;;;14.98;12.13;;;;;;;14.20;62.07;103383.84;1572084;89;21082;-51
2022/11/12 09:37:42;;;;;;;15.63;12.55;;;;;;;14.21;62.22;103382.98;1568470;90;21164;-51
2022/11/12 09:40:51;;;;;;;16.73;14.75;;;;;;;14.22;62.27;103384.72;1568097;89;21070;-51
2022/11/12 09:43:52;;;;;;;18.15;14.78;;;;;;;14.20;62.39;103382.98;1568412;89;21118;-51
2022/11/12 09:46:57;;;;;;;;;;;;;;;14.16;62.45;103380.77;1583190;88;21541;-52
2022/11/12 09:49:49;;;;;;;17.45;14.38;;;;;;;14.13;62.44;103370.72;1545670;90;20182;-51
2022/11/12 09:52:36;;;;;;;17.07;14.15;;;;;;;14.07;62.68;103369.37;1481873;95;22005;-51
2022/11/12 09:55:40;;;;;;;15.53;13.20;;;;;;;14.02;62.77;103373.70;1474074;96;21613;-51
2022/11/12 09:58:26;;;;;;;14.98;12.07;;;;;;;13.97;62.88;103368.47;1497944;94;21134;-51
2022/11/12 10:01:19;;;;;;;14.65;12.95;;;;;;;13.97;63.07;103368.89;1505934;93;21147;-51
2022/11/12 10:04:57;;;;;;;14.63;12.78;;;;;;;13.99;63.09;103365.84;1501220;94;21077;-51
2022/11/12 10:08:15;;;;;;;14.95;12.40;;;;;;;14.02;62.98;103361.92;1459876;96;21113;-52
2022/11/12 10:11:05;;;;;;;13.22;11.75;;;;;;;14.02;62.88;103362.80;1423388;99;21160;-51
2022/11/12 10:14:14;;;;;;;14.87;12.55;;;;;;;14.03;63.02;103363.69;1437348;98;21122;-51
2022/11/12 10:17:12;;;;;;;15.10;11.48;;;;;;;14.08;63.03;103362.83;1434574;97;21167;-52
2022/11/12 10:20:27;;;;;;;13.95;11.45;;;;;;;14.16;63.02;103353.27;1445816;98;21560;-51
2022/11/12 10:23:21;;;;;;;14.40;11.97;;;;;;;14.27;62.80;103352.89;1419775;99;21170;-52
2022/11/12 10:26:16;;;;;;;13.85;11.88;;;;;;;14.33;62.46;103353.38;1444552;95;21601;-52
2022/11/12 10:29:33;;;;;;;12.25;10.58;;;;;;;14.36;62.32;103350.33;1486480;95;21122;-51
2022/11/12 10:32:18;;;;;;;12.20;10.60;;;;;;;14.41;62.30;103362.13;1502515;94;21112;-51
2022/11/12 10:35:04;;;;;;;12.15;10.82;;;;;;;14.45;62.13;103362.16;1492789;94;21110;-51
2022/11/12 10:38:05;;;;;;;11.40;10.20;;;;;;;14.50;61.99;103356.94;1506126;94;21634;-51
2022/11/12 10:40:51;;;;;;;13.80;10.18;;;;;;;14.56;61.86;103359.15;1487258;94;21091;-52
2022/11/12 10:43:37;;;;;;;12.40;11.15;;;;;;;14.62;61.59;103356.97;1483637;94;21092;-51
2022/11/12 10:46:28;;;;;;;13.83;10.95;;;;;;;14.61;61.35;103357.40;1450288;96;21168;-52
2022/11/12 10:49:20;;;;;;;13.98;10.95;;;;;;;14.58;61.30;103354.79;1527465;93;21083;-51
2022/11/12 10:52:19;;;;;;;12.28;10.40;;;;;;;14.52;61.24;103354.77;1541444;92;21115;-51
2022/11/12 10:55:21;;;;;;;11.12;9.95;;;;;;;14.50;61.41;103357.83;1496621;93;21077;-52
2022/11/12 10:58:15;;;;;;;10.25;9.00;;;;;;;14.46;61.25;103358.69;1476836;95;21076;-51
2022/11/12 11:01:13;;;;;;;10.72;9.63;;;;;;;14.40;61.31;103356.05;1483003;95;21931;-51
2022/11/12 11:03:58;;;;;;;11.18;9.30;;;;;;;14.33;61.44;103359.92;1512116;93;21513;-52
2022/11/12 11:06:43;;;;;;;11.78;9.98;;;;;;;14.31;61.64;103359.92;1527911;92;21109;-51
2022/11/12 11:09:29;;;;;;;13.60;11.48;;;;;;;14.29;61.61;103365.59;1509735;93;21071;-52
2022/11/12 11:12:28;;;;;;;13.20;11.80;;;;;;;14.31;61.73;103361.23;1547798;91;21065;-52
2022/11/12 11:15:22;;;;;;;13.78;12.28;;;;;;;14.34;61.72;103364.31;1494187;95;21209;-51
2022/11/12 11:18:11;;;;;;;13.68;12.33;;;;;;;14.35;61.54;103362.11;1457778;97;21127;-51
2022/11/12 11:21:28;;;;;;;15.18;13.55;;;;;;;14.30;61.47;103360.78;1457868;97;21108;-51
2022/11/12 11:24:39;;;;;;;17.17;14.75;;;;;;;14.26;61.80;103362.91;1439280;99;21144;-51
2022/11/12 11:28:06;;;;;;;16.70;14.03;;;;;;;14.27;61.89;103363.38;1409087;99;21607;-53
2022/11/12 11:31:00;;;;;;;20.75;17.20;;;;;;;14.26;61.80;103360.30;1393237;100;21638;-52
2022/11/12 11:34:00;;;;;;;22.07;18.10;;;;;;;14.19;62.00;103358.53;1383229;101;21153;-51
2022/11/12 11:37:05;;;;;;;26.00;18.65;;;;;;;14.16;62.34;103355.89;1394801;102;21116;-52
2022/11/12 11:40:40;;;;;;;24.00;18.23;;;;;;;14.17;62.56;103352.42;1388899;101;21661;-52
2022/11/12 11:43:49;;;;;;;20.88;17.07;;;;;;;14.23;62.75;103344.58;1381335;102;21148;-51
2022/11/12 11:47:04;;;;;;;20.30;18.12;;;;;;;14.33;62.69;103345.09;1380021;103;21191;-51
2022/11/12 11:50:27;;;;;;;25.20;19.85;;;;;;;14.40;62.68;103344.69;1364619;102;21179;-51
2022/11/12 11:53:26;;;;;;;25.12;19.75;;;;;;;14.47;62.47;103344.70;1421170;100;21784;-51
2022/11/12 11:56:27;;;;;;;22.10;17.75;;;;;;;14.50;62.42;103338.17;1422256;100;21141;-51
2022/11/12 11:59:42;;;;;;;22.95;19.35;;;;;;;14.54;62.34;103341.24;1416015;100;21165;-51
2022/11/12 12:02:36;;;;;;;25.40;20.65;;;;;;;14.55;62.27;103342.97;1387850;101;21161;-51
2022/11/12 12:05:45;;;;;;;23.75;19.12;;;;;;;14.58;62.27;103343.00;1416177;99;21566;-51
2022/11/12 12:09:12;;;;;;;21.82;19.07;;;;;;;14.59;62.20;103343.84;1444903;96;21272;-51
2022/11/12 12:12:20;;;;;;;22.32;17.60;;;;;;;14.61;62.09;103339.05;1498470;92;21669;-51
2022/11/12 12:15:49;;;;;;;22.52;17.65;;;;;;;14.68;61.89;103351.31;1518310;92;21134;-51
2022/11/12 12:19:19;;;;;;;22.02;17.60;;;;;;;14.66;61.80;103346.94;1518440;93;21070;-51
2022/11/12 12:22:15;;;;;;;22.82;17.87;;;;;;;14.46;61.98;103345.59;1542326;92;21071;-51
2022/11/12 12:25:06;;;;;;;24.18;17.52;;;;;;;14.51;62.12;103345.14;1546432;92;21115;-51
2022/11/12 12:28:05;;;;;;;22.80;18.48;;;;;;;14.58;62.15;103342.11;1482237;97;21069;-51
2022/11/12 12:30:52;;;;;;;21.77;18.05;;;;;;;14.63;62.03;103341.25;1498384;93;21134;-51
2022/11/12 12:33:46;;;;;;;21.10;17.52;;;;;;;14.72;62.00;103344.75;1529819;92;21119;-51
2022/11/12 12:36:36;;;;;;;19.87;17.60;;;;;;;14.82;61.80;103349.17;1516779;92;22873;-51
2022/11/12 12:39:45;;;;;;;19.57;16.60;;;;;;;14.89;61.51;103344.36;1464945;95;21142;-51
2022/11/12 12:43:05;;;;;;;20.92;16.70;;;;;;;14.95;61.41;103349.18;1522758;93;21168;-52
2022/11/12 12:45:51;;;;;;;21.20;18.07;;;;;;;15.02;61.20;103350.06;1471957;96;21161;-51
2022/11/12 12:48:42;;;;;;;21.07;17.57;;;;;;;15.07;60.92;103344.38;1474522;96;21152;-51
2022/11/12 12:51:29;;;;;;;22.70;18.05;;;;;;;15.07;60.61;103352.23;1470243;95;21161;-52
2022/11/12 12:54:37;;;;;;;21.20;18.67;;;;;;;15.04;60.66;103351.83;1428534;97;21628;-51
2022/11/12 12:57:32;;;;;;;23.57;19.42;;;;;;;15.05;60.64;103350.05;1433602;98;21141;-51
2022/11/12 13:00:38;;;;;;;23.32;19.07;;;;;;;15.02;60.46;103339.58;1454516;96;21151;-53
2022/11/12 13:04:04;;;;;;;20.90;16.70;;;;;;;15.02;60.56;103335.64;1449436;96;21121;-52
2022/11/12 13:06:51;;;;;;;25.30;19.70;;;;;;;15.07;60.45;103341.75;1451703;97;21146;-51
2022/11/12 13:09:39;;;;;;;24.15;20.30;;;;;;;15.02;60.36;103344.82;1481161;95;21062;-52
2022/11/12 13:12:45;;;;;;;26.23;21.00;;;;;;;14.97;60.47;103345.24;1473642;95;21610;-52
2022/11/12 13:15:42;;;;;;;25.40;20.20;;;;;;;14.94;60.47;103342.63;1367488;102;21164;-51
2022/11/12 13:18:43;;;;;;;36.85;23.35;;;;;;;14.90;60.45;103339.57;1355441;104;21111;-50
2022/11/12 13:21:28;;;;;;;29.32;23.75;;;;;;;14.88;60.67;103346.09;1340650;104;21641;-51
2022/11/12 13:24:13;;;;;;;29.98;22.98;;;;;;;14.89;60.67;103341.31;1362594;102;21260;-50